Time;durP1;ratioP1;P1;durP2;ratioP2;P2;SDS_P1;SDS_P2;PMS_P1;PMS_P2;Temp;Humidity;BMP_temperature;BMP_pressure;BME280_temperature;BME280_humidity;BME280_pressure;Samples;Min_cycle;Max_cycle;Signal;HPM_P1;HPM_P2
2023/04/29 00:00:08;;;;;;;3.63;3.30;;;;;;;12.82;100.00;98691.81;5009987;28;20653;-78
2023/04/29 00:02:37;;;;;;;7.70;3.57;;;;;;;12.79;100.00;98684.09;5011139;28;20206;-78
2023/04/29 00:05:06;;;;;;;3.87;3.33;;;;;;;12.83;100.00;98683.69;5010476;28;20206;-78
2023/04/29 00:07:36;;;;;;;4.57;3.90;;;;;;;12.83;100.00;98681.03;5011632;28;20194;-78
2023/04/29 00:10:06;;;;;;;4.77;3.63;;;;;;;12.87;100.00;98681.66;5012924;28;20198;-78
2023/04/29 00:12:34;;;;;;;4.40;4.00;;;;;;;12.90;100.00;98676.09;5013462;28;20308;-77
2023/04/29 00:15:03;;;;;;;5.17;4.00;;;;;;;12.86;100.00;98674.66;5017351;28;20206;-78
2023/04/29 00:17:32;;;;;;;3.90;3.50;;;;;;;12.84;100.00;98677.44;5018672;28;20210;-78
2023/04/29 00:20:00;;;;;;;5.27;3.77;;;;;;;12.80;100.00;98678.63;5019146;28;20253;-78
2023/04/29 00:22:29;;;;;;;6.63;4.00;;;;;;;12.90;100.00;98676.09;5038328;28;20279;-77
2023/04/29 00:24:59;;;;;;;4.17;3.77;;;;;;;12.83;100.00;98677.53;5033661;28;20209;-78
2023/04/29 00:27:27;;;;;;;6.10;3.83;;;;;;;12.90;100.00;98676.91;5037017;28;20198;-78
2023/04/29 00:29:57;;;;;;;5.27;3.90;;;;;;;12.87;100.00;98676.34;5037219;28;20198;-78
2023/04/29 00:32:25;;;;;;;4.67;4.00;;;;;;;12.85;100.00;98676.47;5036832;28;20724;-78
2023/04/29 00:34:55;;;;;;;5.80;4.13;;;;;;;12.87;100.00;98669.22;5034791;28;20325;-77
2023/04/29 00:37:23;;;;;;;6.13;4.70;;;;;;;12.86;100.00;98680.81;5031530;28;20222;-77
2023/04/29 00:39:52;;;;;;;6.27;4.57;;;;;;;12.72;100.00;98675.75;5038013;28;20197;-78
2023/04/29 00:42:22;;;;;;;7.67;4.93;;;;;;;12.75;100.00;98678.19;5036522;28;20194;-77
2023/04/29 00:44:50;;;;;;;7.20;4.70;;;;;;;12.74;100.00;98680.94;5040211;28;20361;-78
2023/04/29 00:47:19;;;;;;;5.47;4.23;;;;;;;12.64;100.00;98688.81;5036657;28;20194;-77
2023/04/29 00:49:47;;;;;;;6.17;4.43;;;;;;;12.65;100.00;98695.00;5035414;28;20290;-77
2023/04/29 00:52:17;;;;;;;5.13;4.13;;;;;;;12.54;100.00;98695.81;5035178;28;20194;-77
2023/04/29 00:54:46;;;;;;;5.10;4.40;;;;;;;12.56;100.00;98699.22;5029297;28;20224;-78
2023/04/29 00:57:15;;;;;;;4.90;4.40;;;;;;;12.50;100.00;98705.84;5028662;28;20190;-78
2023/04/29 00:59:46;;;;;;;6.90;5.30;;;;;;;12.53;100.00;98710.91;5033568;28;20198;-78
2023/04/29 01:02:14;;;;;;;6.27;5.10;;;;;;;12.45;100.00;98712.47;5027205;28;20248;-78
2023/04/29 01:04:42;;;;;;;7.03;5.80;;;;;;;12.44;100.00;98718.75;5012923;28;20201;-78
2023/04/29 01:07:16;;;;;;;6.60;5.70;;;;;;;12.52;100.00;98730.47;5034995;28;20232;-78
2023/04/29 01:10:02;;;;;;;7.00;5.50;;;;;;;12.48;100.00;98728.19;5034930;28;20252;-78
2023/04/29 01:12:39;;;;;;;8.87;6.23;;;;;;;12.33;100.00;98735.53;5031990;28;20201;-78
2023/04/29 01:15:17;;;;;;;8.13;6.37;;;;;;;12.46;100.00;98730.97;5030251;28;20201;-78
2023/04/29 01:17:52;;;;;;;8.40;5.70;;;;;;;12.43;100.00;98735.66;5028675;28;20260;-78
2023/04/29 01:20:22;;;;;;;7.40;5.80;;;;;;;12.45;100.00;98737.25;5031866;28;20239;-77
2023/04/29 01:22:50;;;;;;;6.63;5.83;;;;;;;12.37;100.00;98733.50;5028111;28;20246;-78
2023/04/29 01:25:20;;;;;;;7.33;6.43;;;;;;;12.38;100.00;98737.84;5031687;28;20189;-77
2023/04/29 01:27:57;;;;;;;8.30;6.60;;;;;;;12.30;100.00;98746.41;5029009;28;20256;-78
2023/04/29 01:30:36;;;;;;;7.97;6.50;;;;;;;12.30;100.00;98744.59;5031681;28;20193;-78
2023/04/29 01:33:14;;;;;;;7.03;6.27;;;;;;;12.12;100.00;98739.88;4998734;28;20259;-78
2023/04/29 01:35:55;;;;;;;8.90;6.33;;;;;;;12.20;100.00;98748.94;5034394;28;20185;-78
2023/04/29 01:38:30;;;;;;;8.93;6.27;;;;;;;12.25;100.00;98746.75;5031369;28;20229;-78
2023/04/29 01:41:10;;;;;;;7.40;6.00;;;;;;;12.18;100.00;98742.06;5028720;28;20194;-78
2023/04/29 01:43:39;;;;;;;7.43;6.43;;;;;;;12.16;100.00;98741.31;5030074;28;20202;-78
2023/04/29 01:46:10;;;;;;;8.87;6.77;;;;;;;12.12;100.00;98747.84;5027199;28;20201;-78
2023/04/29 01:48:39;;;;;;;8.73;7.50;;;;;;;12.14;100.00;98741.44;5023593;28;20197;-78
2023/04/29 01:51:08;;;;;;;8.37;7.47;;;;;;;12.28;100.00;98746.53;5028854;28;20194;-78
2023/04/29 01:53:36;;;;;;;9.70;8.07;;;;;;;12.26;100.00;98752.94;5027030;28;20206;-78
2023/04/29 01:56:07;;;;;;;8.07;7.27;;;;;;;12.26;100.00;98745.81;5030767;28;20193;-78
2023/04/29 01:58:35;;;;;;;8.50;7.60;;;;;;;12.19;100.00;98735.78;4971553;28;20220;-78
2023/04/29 02:01:03;;;;;;;8.90;7.83;;;;;;;12.26;100.00;98743.16;4961839;28;20804;-78
2023/04/29 02:03:31;;;;;;;8.27;7.37;;;;;;;12.18;100.00;98745.56;4968006;28;20199;-78
2023/04/29 02:06:00;;;;;;;9.03;7.90;;;;;;;12.23;100.00;98748.69;4968752;28;20207;-78
2023/04/29 02:08:28;;;;;;;9.60;8.20;;;;;;;12.28;100.00;98759.81;4969491;28;20199;-78
2023/04/29 02:10:58;;;;;;;10.90;7.87;;;;;;;12.19;100.00;98754.38;4967807;28;20206;-78
2023/04/29 02:13:28;;;;;;;8.63;7.73;;;;;;;12.27;100.00;98746.66;4972835;28;20204;-78
2023/04/29 02:15:56;;;;;;;8.80;7.27;;;;;;;12.25;100.00;98756.53;4970452;28;20255;-78
2023/04/29 02:18:24;;;;;;;9.13;7.70;;;;;;;12.28;100.00;98758.97;4962714;28;20691;-78
2023/04/29 02:21:00;;;;;;;9.27;7.90;;;;;;;12.20;100.00;98767.53;4969689;28;20203;-77
2023/04/29 02:23:29;;;;;;;11.40;8.30;;;;;;;11.98;100.00;98764.84;5004251;28;20189;-77
2023/04/29 02:25:59;;;;;;;13.53;8.77;;;;;;;12.19;100.00;98770.31;5030523;28;20252;-78
2023/04/29 02:28:28;;;;;;;9.20;7.90;;;;;;;12.14;100.00;98761.84;5030466;28;20193;-78
2023/04/29 02:30:56;;;;;;;9.67;8.40;;;;;;;12.19;100.00;98767.66;5029929;28;20193;-78
2023/04/29 02:33:26;;;;;;;9.00;8.10;;;;;;;12.18;100.00;98769.47;5032104;28;20224;-78
2023/04/29 02:35:54;;;;;;;11.13;9.47;;;;;;;12.11;100.00;98776.19;5031157;28;20264;-78
2023/04/29 02:38:23;;;;;;;10.33;9.00;;;;;;;12.15;100.00;98782.09;5033142;28;20251;-78
2023/04/29 02:40:51;;;;;;;12.63;10.03;;;;;;;12.10;100.00;98781.63;5026299;28;20596;-78
2023/04/29 02:43:19;;;;;;;11.27;9.27;;;;;;;12.11;100.00;98793.94;5030506;28;20228;-78
2023/04/29 02:45:49;;;;;;;12.13;9.03;;;;;;;12.08;100.00;98795.03;5027641;28;20209;-78
2023/04/29 02:48:17;;;;;;;11.23;8.90;;;;;;;12.12;100.00;98803.59;5031722;28;20616;-78
2023/04/29 02:50:45;;;;;;;13.27;9.27;;;;;;;12.17;100.00;98804.09;5029469;28;20248;-78
2023/04/29 02:53:13;;;;;;;11.87;9.67;;;;;;;12.21;100.00;98813.50;5033149;28;20696;-78
2023/04/29 02:55:42;;;;;;;11.83;9.97;;;;;;;12.17;100.00;98814.72;5029327;28;20201;-78
2023/04/29 02:58:10;;;;;;;12.83;10.97;;;;;;;12.17;100.00;98814.72;5027435;28;20198;-78
